createdAt,value
2022-08-26T00:01:45.324Z,5.00
2022-08-26T00:04:12.799Z,5.53
2022-08-26T00:06:42.569Z,4.85
2022-08-26T00:09:16.750Z,4.55
2022-08-26T00:11:44.524Z,4.60
2022-08-26T00:14:13.875Z,4.25
2022-08-26T00:16:47.638Z,5.00
2022-08-26T00:19:19.147Z,4.43
2022-08-26T00:21:48.746Z,4.97
2022-08-26T00:24:17.460Z,4.38
2022-08-26T00:26:44.768Z,4.72
2022-08-26T00:29:12.324Z,4.55
2022-08-26T00:31:40.384Z,5.22
2022-08-26T00:34:09.550Z,5.20
2022-08-26T00:36:39.557Z,4.72
2022-08-26T00:39:08.226Z,4.50
2022-08-26T00:41:35.620Z,4.65
2022-08-26T00:44:02.622Z,4.32
2022-08-26T00:46:31.841Z,4.65
2022-08-26T00:49:02.992Z,4.28
2022-08-26T00:51:30.647Z,4.88
2022-08-26T00:53:59.095Z,4.40
2022-08-26T00:56:29.866Z,4.03
2022-08-26T00:58:58.931Z,4.20
2022-08-26T01:01:28.426Z,4.40
2022-08-26T01:03:57.981Z,4.15
2022-08-26T01:06:25.200Z,3.85
2022-08-26T01:08:52.929Z,4.22
2022-08-26T01:11:20.113Z,4.28
2022-08-26T01:13:47.703Z,3.67
2022-08-26T01:16:16.438Z,3.65
2022-08-26T01:18:44.723Z,4.00
2022-08-26T01:21:27.380Z,3.30
2022-08-26T01:23:57.351Z,3.65
2022-08-26T01:26:26.645Z,3.83
2022-08-26T01:28:55.542Z,3.83
2022-08-26T01:31:25.782Z,3.72
2022-08-26T01:33:57.586Z,3.47
2022-08-26T01:36:24.765Z,3.72
2022-08-26T01:38:51.749Z,3.15
2022-08-26T01:41:19.756Z,3.63
2022-08-26T01:43:51.085Z,3.75
2022-08-26T01:46:18.660Z,4.05
2022-08-26T01:48:46.241Z,3.53
2022-08-26T01:51:15.289Z,3.58
2022-08-26T01:53:42.158Z,3.75
2022-08-26T01:56:14.803Z,4.32
2022-08-26T01:58:46.679Z,4.00
2022-08-26T02:01:14.022Z,3.70
2022-08-26T02:03:56.680Z,4.03
2022-08-26T02:06:24.895Z,3.60
2022-08-26T02:08:54.094Z,4.47
2022-08-26T02:11:21.379Z,4.05
2022-08-26T02:13:49.921Z,4.53
2022-08-26T02:16:19.735Z,3.70
2022-08-26T02:18:47.042Z,3.83
2022-08-26T02:21:14.493Z,4.15
2022-08-26T02:23:41.608Z,4.13
2022-08-26T02:26:17.103Z,4.45
2022-08-26T02:31:12.963Z,3.90
2022-08-26T02:33:43.081Z,4.25
2022-08-26T02:36:10.769Z,3.75
2022-08-26T02:38:40.302Z,4.28
2022-08-26T02:41:10.241Z,3.50
2022-08-26T02:43:37.347Z,3.80
2022-08-26T02:46:04.373Z,3.50
2022-08-26T02:48:31.449Z,3.45
2022-08-26T02:50:59.762Z,3.78
2022-08-26T02:53:26.948Z,3.42
2022-08-26T02:55:54.980Z,3.33
2022-08-26T02:58:21.874Z,3.60
2022-08-26T03:00:52.841Z,3.50
2022-08-26T03:03:20.798Z,3.55
2022-08-26T03:05:50.815Z,3.33
2022-08-26T03:08:17.752Z,3.47
2022-08-26T03:10:44.597Z,3.65
2022-08-26T03:13:11.500Z,3.65
2022-08-26T03:15:38.831Z,3.45
2022-08-26T03:18:05.982Z,3.53
2022-08-26T03:20:34.154Z,3.25
2022-08-26T03:23:01.582Z,3.40
2022-08-26T03:25:28.755Z,3.40
2022-08-26T03:27:55.720Z,3.60
2022-08-26T03:30:44.975Z,4.07
2022-08-26T03:33:12.979Z,3.92
2022-08-26T03:35:41.712Z,4.10
2022-08-26T03:38:09.167Z,3.90
2022-08-26T03:40:36.691Z,3.88
2022-08-26T03:43:05.013Z,3.47
2022-08-26T03:45:33.284Z,4.18
2022-08-26T03:48:00.163Z,4.10
2022-08-26T03:50:29.147Z,3.90
2022-08-26T03:52:56.564Z,3.80
2022-08-26T03:55:25.053Z,3.42
2022-08-26T03:57:52.648Z,3.47
2022-08-26T04:00:19.598Z,4.00
2022-08-26T04:02:47.305Z,3.53
2022-08-26T04:05:14.763Z,3.63
2022-08-26T04:07:42.693Z,3.67
2022-08-26T04:10:10.752Z,3.58
2022-08-26T04:12:39.041Z,3.72
2022-08-26T04:15:07.494Z,3.38
2022-08-26T04:17:34.604Z,3.55
2022-08-26T04:20:02.835Z,3.67
2022-08-26T04:22:29.733Z,3.92
2022-08-26T04:24:56.665Z,3.80
2022-08-26T04:27:23.691Z,3.60
2022-08-26T04:29:55.223Z,3.78
2022-08-26T04:32:22.475Z,4.10
2022-08-26T04:34:49.321Z,3.65
2022-08-26T04:37:16.550Z,3.70
2022-08-26T04:39:44.709Z,3.72
2022-08-26T04:42:13.508Z,3.50
2022-08-26T04:44:41.198Z,3.88
2022-08-26T04:47:08.196Z,3.65
2022-08-26T04:49:36.025Z,3.28
2022-08-26T04:52:04.015Z,3.53
2022-08-26T04:54:31.851Z,3.50
2022-08-26T04:56:59.386Z,3.60
2022-08-26T04:59:26.243Z,3.50
2022-08-26T05:01:56.631Z,3.63
2022-08-26T05:04:23.705Z,4.07
2022-08-26T05:06:50.656Z,4.70
2022-08-26T05:09:19.173Z,4.25
2022-08-26T05:11:48.629Z,4.32
2022-08-26T05:14:19.530Z,4.93
2022-08-26T05:16:47.867Z,4.78
2022-08-26T05:19:15.348Z,5.10
2022-08-26T05:21:46.388Z,4.68
2022-08-26T05:24:14.296Z,4.25
2022-08-26T05:26:41.253Z,4.72
2022-08-26T05:29:08.140Z,4.75
2022-08-26T05:31:35.482Z,4.07
2022-08-26T05:34:04.695Z,4.78
2022-08-26T05:36:33.895Z,4.68
2022-08-26T05:39:02.987Z,4.90
2022-08-26T05:41:34.238Z,4.95
2022-08-26T05:44:04.467Z,4.68
2022-08-26T05:46:31.803Z,4.57
2022-08-26T05:48:59.520Z,4.93
2022-08-26T05:51:27.068Z,5.45
2022-08-26T05:53:57.483Z,4.93
2022-08-26T05:56:26.231Z,4.88
2022-08-26T05:58:53.823Z,5.47
2022-08-26T06:01:27.461Z,5.20
2022-08-26T06:03:56.318Z,5.00
2022-08-26T06:06:30.739Z,4.82
2022-08-26T06:08:59.535Z,4.75
2022-08-26T06:11:27.187Z,5.47
2022-08-26T06:13:56.362Z,5.57
2022-08-26T06:16:25.386Z,5.15
2022-08-26T06:18:52.742Z,5.07
2022-08-26T06:21:22.169Z,5.38
2022-08-26T06:24:09.225Z,5.93
2022-08-26T06:26:36.702Z,5.47
2022-08-26T06:29:04.683Z,5.45
2022-08-26T06:31:32.457Z,5.40
2022-08-26T06:33:59.881Z,5.28
2022-08-26T06:36:28.701Z,6.00
2022-08-26T06:38:58.888Z,5.32
2022-08-26T06:41:25.897Z,5.78
2022-08-26T06:43:53.003Z,5.95
2022-08-26T06:46:21.672Z,5.80
2022-08-26T06:48:48.912Z,6.03
2022-08-26T06:51:17.495Z,5.70
2022-08-26T06:53:48.249Z,5.40
2022-08-26T06:56:17.137Z,5.95
2022-08-26T06:58:44.014Z,6.07
2022-08-26T07:01:16.932Z,6.00
2022-08-26T07:03:46.647Z,6.10
2022-08-26T07:06:13.969Z,6.10
2022-08-26T07:08:40.921Z,6.28
2022-08-26T07:11:09.090Z,6.40
2022-08-26T07:13:37.698Z,6.60
2022-08-26T07:16:05.993Z,6.15
2022-08-26T07:18:36.686Z,6.65
2022-08-26T07:21:05.275Z,7.15
2022-08-26T07:23:32.671Z,6.80
2022-08-26T07:26:00.078Z,6.57
2022-08-26T07:28:27.301Z,6.80
2022-08-26T07:30:54.132Z,6.65
2022-08-26T07:33:21.142Z,6.55
2022-08-26T07:35:48.042Z,6.88
2022-08-26T07:38:15.034Z,7.05
2022-08-26T07:40:42.627Z,6.63
2022-08-26T07:43:10.194Z,8.05
2022-08-26T07:45:37.067Z,7.53
2022-08-26T07:48:04.086Z,7.53
2022-08-26T07:50:48.903Z,7.10
2022-08-26T07:53:18.015Z,8.55
2022-08-26T07:55:45.110Z,8.10
2022-08-26T07:58:12.065Z,8.20
2022-08-26T08:00:39.209Z,8.38
2022-08-26T08:03:06.531Z,8.30
2022-08-26T08:05:33.903Z,9.13
2022-08-26T08:08:17.368Z,9.07
2022-08-26T08:10:48.865Z,9.48
2022-08-26T08:13:15.921Z,9.77
2022-08-26T08:15:42.956Z,9.23
2022-08-26T08:18:15.726Z,9.95
2022-08-26T08:20:47.715Z,9.63
2022-08-26T08:23:26.188Z,9.52
2022-08-26T08:26:08.339Z,9.38
2022-08-26T08:28:35.998Z,10.25
2022-08-26T08:31:02.955Z,9.52
2022-08-26T08:33:30.340Z,9.23
2022-08-26T08:35:57.804Z,9.25
2022-08-26T08:38:24.987Z,9.43
2022-08-26T08:40:53.188Z,8.98
2022-08-26T08:43:20.625Z,9.32
2022-08-26T08:45:54.854Z,8.82
2022-08-26T08:48:27.734Z,8.57
2022-08-26T08:51:16.722Z,8.45
2022-08-26T08:56:25.976Z,7.78
2022-08-26T08:58:58.789Z,8.50
2022-08-26T09:01:35.277Z,7.97
2022-08-26T09:04:17.740Z,8.10
2022-08-26T09:06:45.686Z,6.93
2022-08-26T09:09:17.250Z,7.78
2022-08-26T09:11:44.263Z,7.82
2022-08-26T09:14:11.588Z,7.82
2022-08-26T09:16:49.227Z,7.68
2022-08-26T09:19:48.990Z,7.60
2022-08-26T09:22:33.136Z,6.72
2022-08-26T09:25:01.621Z,6.80
2022-08-26T09:27:44.051Z,6.18
2022-08-26T09:30:14.348Z,5.97
2022-08-26T09:32:41.859Z,5.25
2022-08-26T09:35:11.206Z,5.10
2022-08-26T09:37:40.069Z,4.47
2022-08-26T09:40:15.963Z,4.10
2022-08-26T09:42:43.287Z,3.70
2022-08-26T09:45:11.905Z,3.53
2022-08-26T09:47:38.876Z,2.47
2022-08-26T09:50:14.494Z,3.10
2022-08-26T09:52:42.758Z,2.20
2022-08-26T09:55:09.895Z,1.70
2022-08-26T09:57:44.932Z,1.85
2022-08-26T10:00:30.542Z,1.90
2022-08-26T10:02:59.014Z,1.70
2022-08-26T10:05:37.173Z,1.90
2022-08-26T10:08:19.941Z,1.85
2022-08-26T10:10:53.284Z,1.85
2022-08-26T10:13:32.728Z,1.80
2022-08-26T10:16:00.662Z,2.03
2022-08-26T10:18:34.678Z,2.33
2022-08-26T10:21:09.224Z,1.90
2022-08-26T10:26:18.403Z,2.10
2022-08-26T10:28:51.264Z,1.90
2022-08-26T10:31:27.688Z,2.00
2022-08-26T10:33:58.813Z,2.03
2022-08-26T10:37:13.461Z,1.95
2022-08-26T10:39:42.436Z,1.90
2022-08-26T10:42:35.590Z,1.85
2022-08-26T10:45:11.611Z,1.80
2022-08-26T10:47:47.590Z,1.90
2022-08-26T10:50:15.086Z,2.00
2022-08-26T10:52:52.556Z,2.00
2022-08-26T10:55:34.886Z,1.90
2022-08-26T10:58:26.519Z,2.03
2022-08-26T11:01:25.883Z,1.98
2022-08-26T11:04:04.208Z,2.08
2022-08-26T11:06:31.541Z,2.20
2022-08-26T11:09:02.642Z,2.20
2022-08-26T11:11:38.732Z,2.25
2022-08-26T11:14:06.940Z,2.28
2022-08-26T11:16:34.188Z,2.28
2022-08-26T11:19:01.958Z,2.13
2022-08-26T11:21:49.518Z,2.38
2022-08-26T11:24:36.523Z,2.10
2022-08-26T11:27:03.432Z,2.00
2022-08-26T11:29:49.689Z,2.28
2022-08-26T11:32:25.109Z,1.90
2022-08-26T11:34:59.372Z,2.10
2022-08-26T11:37:32.277Z,2.33
2022-08-26T11:40:00.831Z,1.77
2022-08-26T11:42:29.849Z,2.00
2022-08-26T11:44:58.176Z,2.10
2022-08-26T11:47:29.281Z,1.85
2022-08-26T11:50:09.624Z,1.90
2022-08-26T11:52:37.378Z,1.73
2022-08-26T11:55:06.696Z,1.98
2022-08-26T11:57:34.931Z,2.00
2022-08-26T12:00:02.877Z,1.73
2022-08-26T12:02:29.806Z,1.80
2022-08-26T12:04:57.064Z,1.63
2022-08-26T12:07:27.799Z,1.90
2022-08-26T12:09:57.486Z,1.67
2022-08-26T12:12:29.917Z,1.60
2022-08-26T12:15:19.933Z,1.80
2022-08-26T12:20:31.625Z,1.70
2022-08-26T12:23:00.287Z,1.75
2022-08-26T12:25:28.163Z,1.67
2022-08-26T12:28:04.152Z,1.60
2022-08-26T12:30:31.121Z,1.67
2022-08-26T12:33:22.409Z,1.40
2022-08-26T12:35:54.393Z,1.48
2022-08-26T12:38:23.929Z,1.88
2022-08-26T12:40:50.874Z,1.40
2022-08-26T12:43:36.509Z,1.30
2022-08-26T12:46:04.701Z,1.30
2022-08-26T12:48:36.375Z,1.27
2022-08-26T12:51:03.725Z,1.58
2022-08-26T12:53:32.955Z,1.25
2022-08-26T12:56:03.592Z,1.60
2022-08-26T12:58:37.928Z,1.40
2022-08-26T13:01:05.124Z,1.35
2022-08-26T13:03:35.228Z,1.20
2022-08-26T13:06:16.015Z,1.30
2022-08-26T13:08:47.586Z,1.40
2022-08-26T13:11:20.878Z,1.40
2022-08-26T13:13:51.826Z,1.40
2022-08-26T13:16:21.089Z,1.20
2022-08-26T13:18:48.905Z,1.67
2022-08-26T13:21:26.787Z,1.30
2022-08-26T13:23:53.981Z,1.67
2022-08-26T13:26:21.654Z,1.67
2022-08-26T13:29:01.758Z,1.30
2022-08-26T13:31:30.645Z,1.10
2022-08-26T13:33:57.800Z,1.00
2022-08-26T13:36:24.772Z,1.08
2022-08-26T13:38:51.880Z,1.45
2022-08-26T13:41:29.053Z,1.15
2022-08-26T13:43:56.890Z,1.02
2022-08-26T13:46:26.784Z,0.93
2022-08-26T13:48:54.632Z,1.40
2022-08-26T13:51:22.817Z,1.17
2022-08-26T13:53:50.460Z,1.30
2022-08-26T13:56:18.869Z,1.35
2022-08-26T13:58:46.390Z,1.30
2022-08-26T14:01:14.547Z,1.17
2022-08-26T14:03:41.942Z,1.27
2022-08-26T14:06:09.006Z,1.20
2022-08-26T14:08:37.048Z,1.20
2022-08-26T14:11:03.939Z,1.60
2022-08-26T14:13:30.888Z,1.23
2022-08-26T14:16:01.942Z,1.40
2022-08-26T14:18:31.544Z,1.27
2022-08-26T14:20:59.041Z,1.27
2022-08-26T14:23:26.570Z,1.50
2022-08-26T14:25:53.887Z,1.20
2022-08-26T14:28:20.916Z,1.20
2022-08-26T14:30:51.116Z,1.30
2022-08-26T14:33:20.212Z,1.60
2022-08-26T14:35:48.970Z,1.48
2022-08-26T14:38:17.105Z,1.73
2022-08-26T14:40:47.509Z,1.30
2022-08-26T14:43:15.428Z,1.23
2022-08-26T14:45:43.803Z,1.42
2022-08-26T14:48:10.905Z,1.40
2022-08-26T14:50:38.413Z,1.33
2022-08-26T14:53:24.189Z,1.70
2022-08-26T14:55:51.147Z,1.27
2022-08-26T14:58:18.022Z,1.40
2022-08-26T15:00:45.268Z,1.50
2022-08-26T15:03:12.187Z,1.30
2022-08-26T15:05:48.142Z,1.45
2022-08-26T15:08:15.988Z,1.50
2022-08-26T15:10:42.878Z,1.45
2022-08-26T15:13:09.799Z,1.60
2022-08-26T15:15:37.436Z,1.58
2022-08-26T15:18:04.305Z,1.63
2022-08-26T15:23:06.303Z,1.60
2022-08-26T15:25:33.583Z,1.48
2022-08-26T15:28:00.569Z,1.50
2022-08-26T15:30:27.574Z,1.55
2022-08-26T15:32:54.596Z,1.40
2022-08-26T15:35:21.583Z,1.70
2022-08-26T15:40:16.060Z,1.60
2022-08-26T15:42:43.257Z,1.70
2022-08-26T15:45:14.372Z,1.85
2022-08-26T15:47:55.428Z,1.60
2022-08-26T15:50:29.108Z,1.63
2022-08-26T15:52:56.385Z,1.50
2022-08-26T15:55:23.606Z,1.70
2022-08-26T15:57:50.569Z,1.90
2022-08-26T16:00:17.667Z,2.00
2022-08-26T16:02:44.666Z,1.95
2022-08-26T16:05:11.648Z,1.52
2022-08-26T16:07:38.768Z,1.67
2022-08-26T16:10:05.884Z,1.80
2022-08-26T16:12:33.393Z,1.60
2022-08-26T16:15:00.323Z,1.70
2022-08-26T16:17:27.668Z,1.80
2022-08-26T16:19:54.535Z,1.60
2022-08-26T16:22:21.549Z,1.80
2022-08-26T16:24:49.037Z,1.80
2022-08-26T16:27:15.961Z,1.70
2022-08-26T16:29:42.912Z,1.77
2022-08-26T16:32:09.792Z,1.63
2022-08-26T16:34:36.698Z,1.73
2022-08-26T16:37:04.219Z,1.85
2022-08-26T16:39:31.309Z,1.60
2022-08-26T16:41:58.225Z,1.67
2022-08-26T16:44:28.029Z,1.92
2022-08-26T16:46:58.842Z,1.70
2022-08-26T16:49:25.815Z,1.60
2022-08-26T16:51:52.675Z,1.88
2022-08-26T16:54:19.576Z,1.92
2022-08-26T16:56:47.605Z,2.10
2022-08-26T16:59:14.483Z,2.35
2022-08-26T17:01:41.417Z,2.10
2022-08-26T17:04:08.741Z,2.30
2022-08-26T17:06:35.605Z,2.22
2022-08-26T17:09:02.738Z,2.28
2022-08-26T17:11:29.831Z,2.38
2022-08-26T17:13:57.552Z,2.30
2022-08-26T17:16:26.861Z,2.60
2022-08-26T17:18:55.329Z,2.30
2022-08-26T17:21:22.219Z,2.30
2022-08-26T17:23:49.089Z,2.30
2022-08-26T17:26:16.140Z,2.22
2022-08-26T17:28:43.059Z,2.28
2022-08-26T17:31:11.059Z,2.13
2022-08-26T17:33:38.200Z,2.42
2022-08-26T17:36:05.890Z,2.42
2022-08-26T17:38:32.837Z,2.20
2022-08-26T17:40:59.754Z,2.05
2022-08-26T17:43:29.736Z,2.22
2022-08-26T17:45:58.015Z,2.10
2022-08-26T17:48:27.320Z,2.50
2022-08-26T17:50:54.510Z,2.40
2022-08-26T17:53:21.724Z,2.35
2022-08-26T17:55:48.883Z,2.28
2022-08-26T17:58:17.209Z,2.05
2022-08-26T18:00:45.022Z,2.58
2022-08-26T18:03:11.925Z,2.47
2022-08-26T18:05:38.807Z,2.45
2022-08-26T18:08:05.671Z,2.50
2022-08-26T18:10:32.601Z,2.60
2022-08-26T18:12:59.462Z,2.22
2022-08-26T18:15:26.375Z,2.20
2022-08-26T18:17:53.439Z,2.67
2022-08-26T18:20:20.611Z,2.40
2022-08-26T18:22:47.999Z,2.20
2022-08-26T18:25:15.366Z,2.53
2022-08-26T18:27:43.768Z,2.70
2022-08-26T18:30:16.427Z,2.42
2022-08-26T18:32:44.057Z,2.45
2022-08-26T18:35:11.374Z,2.40
2022-08-26T18:37:38.393Z,2.60
2022-08-26T18:40:06.800Z,2.42
2022-08-26T18:42:33.827Z,2.80
2022-08-26T18:45:00.879Z,2.67
2022-08-26T18:47:27.894Z,2.50
2022-08-26T18:49:54.935Z,2.42
2022-08-26T18:52:21.802Z,2.30
2022-08-26T18:54:50.837Z,2.75
2022-08-26T18:57:17.836Z,2.45
2022-08-26T18:59:44.777Z,2.38
2022-08-26T19:02:11.770Z,2.40
2022-08-26T19:04:39.023Z,2.50
2022-08-26T19:07:06.362Z,2.60
2022-08-26T19:09:33.797Z,2.75
2022-08-26T19:12:00.883Z,2.90
2022-08-26T19:14:28.667Z,2.92
2022-08-26T19:16:55.662Z,2.50
2022-08-26T19:19:25.576Z,2.90
2022-08-26T19:21:52.732Z,2.70
2022-08-26T19:24:20.627Z,2.72
2022-08-26T19:26:57.971Z,3.05
2022-08-26T19:29:27.734Z,2.90
2022-08-26T19:31:54.724Z,3.05
2022-08-26T19:34:21.598Z,3.00
2022-08-26T19:36:49.492Z,2.90
2022-08-26T19:39:16.604Z,3.00
2022-08-26T19:41:44.124Z,3.00
2022-08-26T19:44:13.243Z,2.97
2022-08-26T19:46:40.582Z,3.03
2022-08-26T19:49:07.487Z,3.25
2022-08-26T19:51:35.218Z,3.33
2022-08-26T19:54:02.520Z,2.90
2022-08-26T19:56:29.670Z,3.17
2022-08-26T19:58:56.888Z,3.17
2022-08-26T20:01:24.196Z,3.20
2022-08-26T20:03:51.128Z,3.20
2022-08-26T20:06:18.289Z,3.60
2022-08-26T20:08:45.171Z,3.20
2022-08-26T20:11:13.648Z,3.50
2022-08-26T20:13:40.527Z,3.28
2022-08-26T20:16:07.625Z,3.70
2022-08-26T20:18:52.965Z,3.50
2022-08-26T20:21:29.496Z,4.13
2022-08-26T20:24:01.405Z,4.03
2022-08-26T20:26:29.275Z,3.72
2022-08-26T20:28:56.675Z,3.50
2022-08-26T20:31:24.138Z,3.80
2022-08-26T20:33:51.794Z,4.00
2022-08-26T20:36:20.460Z,3.92
2022-08-26T20:38:48.315Z,3.60
2022-08-26T20:41:15.568Z,3.63
2022-08-26T20:43:46.225Z,3.65
2022-08-26T20:46:18.277Z,3.97
2022-08-26T20:48:47.103Z,4.13
2022-08-26T20:51:14.450Z,4.13
2022-08-26T20:53:41.510Z,3.92
2022-08-26T20:56:09.149Z,3.90
2022-08-26T20:58:36.510Z,3.40
2022-08-26T21:01:07.521Z,4.20
2022-08-26T21:03:35.888Z,3.38
2022-08-26T21:06:03.904Z,3.80
2022-08-26T21:08:33.160Z,3.97
2022-08-26T21:11:00.951Z,3.45
2022-08-26T21:13:42.757Z,3.20
2022-08-26T21:16:15.521Z,3.40
2022-08-26T21:18:42.484Z,3.33
2022-08-26T21:21:10.198Z,3.15
2022-08-26T21:23:37.422Z,3.28
2022-08-26T21:26:06.024Z,3.15
2022-08-26T21:28:34.851Z,2.70
2022-08-26T21:31:03.839Z,3.03
2022-08-26T21:33:31.048Z,2.63
2022-08-26T21:35:57.993Z,2.60
2022-08-26T21:38:24.945Z,2.47
2022-08-26T21:40:58.971Z,2.70
2022-08-26T21:43:35.231Z,2.50
2022-08-26T21:46:07.578Z,2.40
2022-08-26T21:48:35.296Z,2.47
2022-08-26T21:51:04.351Z,2.60
2022-08-26T21:53:31.430Z,2.42
2022-08-26T21:55:58.538Z,2.40
2022-08-26T21:58:25.446Z,2.67
2022-08-26T22:00:52.458Z,2.35
2022-08-26T22:03:19.430Z,2.60
2022-08-26T22:05:49.675Z,2.78
2022-08-26T22:08:17.883Z,2.42
2022-08-26T22:10:44.801Z,2.83
2022-08-26T22:13:11.784Z,2.70
2022-08-26T22:15:42.358Z,2.80
2022-08-26T22:18:09.668Z,2.22
2022-08-26T22:20:36.690Z,2.40
2022-08-26T22:23:03.668Z,2.53
2022-08-26T22:25:30.658Z,2.80
2022-08-26T22:27:57.740Z,2.47
2022-08-26T22:30:24.795Z,2.50
2022-08-26T22:32:51.805Z,2.55
2022-08-26T22:35:29.202Z,2.40
2022-08-26T22:37:57.282Z,2.53
2022-08-26T22:40:24.451Z,2.50
2022-08-26T22:42:55.669Z,2.40
2022-08-26T22:45:27.664Z,2.40
2022-08-26T22:47:54.896Z,2.25
2022-08-26T22:50:21.921Z,2.30
2022-08-26T22:52:48.862Z,2.05
2022-08-26T22:55:15.862Z,2.35
2022-08-26T22:57:42.744Z,2.40
2022-08-26T23:00:13.540Z,2.47
2022-08-26T23:02:41.355Z,2.20
2022-08-26T23:05:08.610Z,2.22
2022-08-26T23:07:35.836Z,2.40
2022-08-26T23:10:04.675Z,2.40
2022-08-26T23:12:31.607Z,2.33
2022-08-26T23:14:59.017Z,2.20
2022-08-26T23:17:25.920Z,2.13
2022-08-26T23:19:52.825Z,2.22
2022-08-26T23:22:19.744Z,2.30
2022-08-26T23:24:46.647Z,2.50
2022-08-26T23:27:14.058Z,2.38
2022-08-26T23:29:41.108Z,2.55
2022-08-26T23:32:08.106Z,2.45
2022-08-26T23:34:53.993Z,2.42
2022-08-26T23:37:21.464Z,2.55
2022-08-26T23:39:50.405Z,2.20
2022-08-26T23:42:17.798Z,2.50
2022-08-26T23:44:44.698Z,2.40
2022-08-26T23:47:11.759Z,2.58
2022-08-26T23:49:39.023Z,2.28
2022-08-26T23:52:24.701Z,2.30
2022-08-26T23:54:53.009Z,2.50
2022-08-26T23:57:21.177Z,2.25
2022-08-26T23:59:48.712Z,2.22
